sensor_id;sensor_type;location;lat;lon;timestamp;P1;durP1;ratioP1;P2;durP2;ratioP2
43248;SDS011;29216;51.248;6.808;2023-04-29T00:00:55;17.88;;;11.82;;
43248;SDS011;29216;51.248;6.808;2023-04-29T00:03:21;18.45;;;11.63;;
43248;SDS011;29216;51.248;6.808;2023-04-29T00:05:47;17.40;;;12.48;;
43248;SDS011;29216;51.248;6.808;2023-04-29T00:08:13;19.83;;;13.13;;
43248;SDS011;29216;51.248;6.808;2023-04-29T00:10:39;21.50;;;14.05;;
43248;SDS011;29216;51.248;6.808;2023-04-29T00:13:05;24.45;;;16.52;;
43248;SDS011;29216;51.248;6.808;2023-04-29T00:15:31;21.55;;;15.70;;
43248;SDS011;29216;51.248;6.808;2023-04-29T00:17:57;25.15;;;16.83;;
43248;SDS011;29216;51.248;6.808;2023-04-29T00:20:23;28.75;;;17.67;;
43248;SDS011;29216;51.248;6.808;2023-04-29T00:22:49;26.42;;;17.08;;
43248;SDS011;29216;51.248;6.808;2023-04-29T00:25:15;26.77;;;18.17;;
43248;SDS011;29216;51.248;6.808;2023-04-29T00:27:41;31.10;;;19.83;;
43248;SDS011;29216;51.248;6.808;2023-04-29T00:30:07;30.35;;;20.58;;
43248;SDS011;29216;51.248;6.808;2023-04-29T00:32:33;34.85;;;22.85;;
43248;SDS011;29216;51.248;6.808;2023-04-29T00:35:00;37.92;;;24.60;;
43248;SDS011;29216;51.248;6.808;2023-04-29T00:37:26;42.63;;;25.83;;
43248;SDS011;29216;51.248;6.808;2023-04-29T00:39:52;42.00;;;25.52;;
43248;SDS011;29216;51.248;6.808;2023-04-29T00:42:19;49.42;;;28.52;;
43248;SDS011;29216;51.248;6.808;2023-04-29T00:44:45;50.17;;;30.67;;
43248;SDS011;29216;51.248;6.808;2023-04-29T00:47:11;56.38;;;31.30;;
43248;SDS011;29216;51.248;6.808;2023-04-29T00:49:40;59.50;;;34.03;;
43248;SDS011;29216;51.248;6.808;2023-04-29T00:52:06;63.28;;;35.05;;
43248;SDS011;29216;51.248;6.808;2023-04-29T00:54:33;63.15;;;34.05;;
43248;SDS011;29216;51.248;6.808;2023-04-29T00:57:00;62.47;;;35.15;;
43248;SDS011;29216;51.248;6.808;2023-04-29T00:59:27;63.90;;;35.42;;
43248;SDS011;29216;51.248;6.808;2023-04-29T01:01:57;61.70;;;35.92;;
43248;SDS011;29216;51.248;6.808;2023-04-29T01:04:23;65.10;;;36.65;;
43248;SDS011;29216;51.248;6.808;2023-04-29T01:14:53;69.03;;;38.05;;
43248;SDS011;29216;51.248;6.808;2023-04-29T01:17:19;62.42;;;35.65;;
43248;SDS011;29216;51.248;6.808;2023-04-29T01:19:53;61.45;;;35.42;;
43248;SDS011;29216;51.248;6.808;2023-04-29T01:22:20;62.42;;;35.08;;
43248;SDS011;29216;51.248;6.808;2023-04-29T01:24:48;65.03;;;34.50;;
43248;SDS011;29216;51.248;6.808;2023-04-29T01:29:52;65.13;;;33.92;;
43248;SDS011;29216;51.248;6.808;2023-04-29T01:32:25;60.35;;;33.25;;
43248;SDS011;29216;51.248;6.808;2023-04-29T01:34:59;59.40;;;32.63;;
43248;SDS011;29216;51.248;6.808;2023-04-29T01:37:27;62.38;;;33.67;;
43248;SDS011;29216;51.248;6.808;2023-04-29T01:39:56;63.75;;;32.63;;
43248;SDS011;29216;51.248;6.808;2023-04-29T01:42:32;62.38;;;35.22;;
43248;SDS011;29216;51.248;6.808;2023-04-29T01:45:01;69.53;;;35.03;;
43248;SDS011;29216;51.248;6.808;2023-04-29T01:47:29;69.05;;;35.38;;
43248;SDS011;29216;51.248;6.808;2023-04-29T01:49:56;73.35;;;34.63;;
43248;SDS011;29216;51.248;6.808;2023-04-29T01:52:22;75.88;;;37.97;;
43248;SDS011;29216;51.248;6.808;2023-04-29T01:54:48;73.18;;;36.17;;
43248;SDS011;29216;51.248;6.808;2023-04-29T01:57:14;79.80;;;36.40;;
43248;SDS011;29216;51.248;6.808;2023-04-29T01:59:40;73.30;;;34.63;;
43248;SDS011;29216;51.248;6.808;2023-04-29T02:02:06;70.57;;;36.10;;
43248;SDS011;29216;51.248;6.808;2023-04-29T02:04:34;69.13;;;34.88;;
43248;SDS011;29216;51.248;6.808;2023-04-29T02:07:06;79.13;;;36.40;;
43248;SDS011;29216;51.248;6.808;2023-04-29T02:09:32;72.97;;;34.28;;
43248;SDS011;29216;51.248;6.808;2023-04-29T02:11:58;69.43;;;33.15;;
43248;SDS011;29216;51.248;6.808;2023-04-29T02:14:24;75.45;;;36.88;;
43248;SDS011;29216;51.248;6.808;2023-04-29T02:16:50;71.07;;;34.20;;
43248;SDS011;29216;51.248;6.808;2023-04-29T02:19:16;76.88;;;33.92;;
43248;SDS011;29216;51.248;6.808;2023-04-29T02:21:42;74.97;;;35.30;;
43248;SDS011;29216;51.248;6.808;2023-04-29T02:24:08;71.95;;;33.72;;
43248;SDS011;29216;51.248;6.808;2023-04-29T02:26:34;66.57;;;31.23;;
43248;SDS011;29216;51.248;6.808;2023-04-29T02:29:02;60.63;;;30.42;;
43248;SDS011;29216;51.248;6.808;2023-04-29T02:31:31;55.42;;;27.90;;
43248;SDS011;29216;51.248;6.808;2023-04-29T02:33:57;58.75;;;27.75;;
43248;SDS011;29216;51.248;6.808;2023-04-29T02:36:24;65.40;;;30.75;;
43248;SDS011;29216;51.248;6.808;2023-04-29T02:38:50;57.72;;;29.33;;
43248;SDS011;29216;51.248;6.808;2023-04-29T02:41:19;62.85;;;30.02;;
43248;SDS011;29216;51.248;6.808;2023-04-29T02:43:45;60.42;;;28.58;;
43248;SDS011;29216;51.248;6.808;2023-04-29T02:46:13;56.58;;;28.25;;
43248;SDS011;29216;51.248;6.808;2023-04-29T02:48:40;51.33;;;25.88;;
43248;SDS011;29216;51.248;6.808;2023-04-29T02:51:06;59.08;;;28.95;;
43248;SDS011;29216;51.248;6.808;2023-04-29T02:53:32;54.50;;;27.92;;
43248;SDS011;29216;51.248;6.808;2023-04-29T02:55:58;56.20;;;28.73;;
43248;SDS011;29216;51.248;6.808;2023-04-29T02:58:24;51.47;;;26.70;;
43248;SDS011;29216;51.248;6.808;2023-04-29T03:00:50;59.42;;;29.08;;
43248;SDS011;29216;51.248;6.808;2023-04-29T03:03:16;57.60;;;29.77;;
43248;SDS011;29216;51.248;6.808;2023-04-29T03:05:42;59.85;;;28.98;;
43248;SDS011;29216;51.248;6.808;2023-04-29T03:08:08;60.42;;;28.83;;
43248;SDS011;29216;51.248;6.808;2023-04-29T03:10:34;59.50;;;29.40;;
43248;SDS011;29216;51.248;6.808;2023-04-29T03:13:00;64.72;;;29.38;;
43248;SDS011;29216;51.248;6.808;2023-04-29T03:15:26;63.53;;;29.13;;
43248;SDS011;29216;51.248;6.808;2023-04-29T03:17:53;63.13;;;30.08;;
43248;SDS011;29216;51.248;6.808;2023-04-29T03:20:19;63.30;;;30.13;;
43248;SDS011;29216;51.248;6.808;2023-04-29T03:22:45;62.25;;;30.90;;
43248;SDS011;29216;51.248;6.808;2023-04-29T03:25:11;68.25;;;31.58;;
43248;SDS011;29216;51.248;6.808;2023-04-29T03:27:38;67.80;;;30.23;;
43248;SDS011;29216;51.248;6.808;2023-04-29T03:30:07;62.35;;;29.60;;
43248;SDS011;29216;51.248;6.808;2023-04-29T03:32:33;72.22;;;31.52;;
43248;SDS011;29216;51.248;6.808;2023-04-29T03:34:59;68.03;;;30.15;;
43248;SDS011;29216;51.248;6.808;2023-04-29T03:37:25;68.13;;;32.65;;
43248;SDS011;29216;51.248;6.808;2023-04-29T03:39:51;70.47;;;31.23;;
43248;SDS011;29216;51.248;6.808;2023-04-29T03:42:17;66.95;;;31.00;;
43248;SDS011;29216;51.248;6.808;2023-04-29T03:44:43;62.83;;;31.23;;
43248;SDS011;29216;51.248;6.808;2023-04-29T03:47:09;65.38;;;30.48;;
43248;SDS011;29216;51.248;6.808;2023-04-29T03:49:35;59.95;;;28.60;;
43248;SDS011;29216;51.248;6.808;2023-04-29T03:52:01;65.25;;;30.60;;
43248;SDS011;29216;51.248;6.808;2023-04-29T03:54:28;64.28;;;30.48;;
43248;SDS011;29216;51.248;6.808;2023-04-29T03:56:54;58.17;;;29.00;;
43248;SDS011;29216;51.248;6.808;2023-04-29T03:59:21;60.78;;;30.50;;
43248;SDS011;29216;51.248;6.808;2023-04-29T04:01:47;61.85;;;29.52;;
43248;SDS011;29216;51.248;6.808;2023-04-29T04:04:13;60.90;;;30.30;;
43248;SDS011;29216;51.248;6.808;2023-04-29T04:06:39;65.38;;;31.63;;
43248;SDS011;29216;51.248;6.808;2023-04-29T04:09:07;51.20;;;27.27;;
43248;SDS011;29216;51.248;6.808;2023-04-29T04:11:33;60.15;;;28.50;;
43248;SDS011;29216;51.248;6.808;2023-04-29T04:14:00;55.38;;;27.08;;
43248;SDS011;29216;51.248;6.808;2023-04-29T04:16:26;53.80;;;25.90;;
43248;SDS011;29216;51.248;6.808;2023-04-29T04:18:52;47.67;;;24.52;;
43248;SDS011;29216;51.248;6.808;2023-04-29T04:21:18;51.97;;;25.65;;
43248;SDS011;29216;51.248;6.808;2023-04-29T04:23:44;52.17;;;26.05;;
43248;SDS011;29216;51.248;6.808;2023-04-29T04:26:10;48.42;;;23.83;;
43248;SDS011;29216;51.248;6.808;2023-04-29T04:28:36;49.60;;;25.02;;
43248;SDS011;29216;51.248;6.808;2023-04-29T04:31:02;47.53;;;23.08;;
43248;SDS011;29216;51.248;6.808;2023-04-29T04:33:29;49.60;;;24.80;;
43248;SDS011;29216;51.248;6.808;2023-04-29T04:35:56;45.25;;;23.83;;
43248;SDS011;29216;51.248;6.808;2023-04-29T04:38:22;48.75;;;24.52;;
43248;SDS011;29216;51.248;6.808;2023-04-29T04:40:49;45.88;;;23.35;;
43248;SDS011;29216;51.248;6.808;2023-04-29T04:43:15;45.90;;;23.55;;
43248;SDS011;29216;51.248;6.808;2023-04-29T04:45:41;43.03;;;22.48;;
43248;SDS011;29216;51.248;6.808;2023-04-29T04:48:08;40.65;;;23.08;;
43248;SDS011;29216;51.248;6.808;2023-04-29T04:50:34;40.78;;;21.90;;
43248;SDS011;29216;51.248;6.808;2023-04-29T04:53:00;39.10;;;20.38;;
43248;SDS011;29216;51.248;6.808;2023-04-29T04:55:26;38.17;;;20.60;;
43248;SDS011;29216;51.248;6.808;2023-04-29T04:57:52;41.75;;;21.08;;
43248;SDS011;29216;51.248;6.808;2023-04-29T05:00:18;36.92;;;19.38;;
43248;SDS011;29216;51.248;6.808;2023-04-29T05:02:44;37.05;;;20.55;;
43248;SDS011;29216;51.248;6.808;2023-04-29T05:05:10;34.88;;;21.02;;
43248;SDS011;29216;51.248;6.808;2023-04-29T05:07:36;37.47;;;20.08;;
43248;SDS011;29216;51.248;6.808;2023-04-29T05:10:02;35.33;;;19.67;;
43248;SDS011;29216;51.248;6.808;2023-04-29T05:12:28;33.70;;;20.45;;
43248;SDS011;29216;51.248;6.808;2023-04-29T05:14:55;32.67;;;18.65;;
43248;SDS011;29216;51.248;6.808;2023-04-29T05:17:21;33.40;;;19.10;;
43248;SDS011;29216;51.248;6.808;2023-04-29T05:19:47;38.10;;;19.25;;
43248;SDS011;29216;51.248;6.808;2023-04-29T05:22:13;32.60;;;19.05;;
43248;SDS011;29216;51.248;6.808;2023-04-29T05:24:39;44.25;;;20.13;;
43248;SDS011;29216;51.248;6.808;2023-04-29T05:27:05;34.83;;;19.63;;
43248;SDS011;29216;51.248;6.808;2023-04-29T05:29:34;32.95;;;18.40;;
43248;SDS011;29216;51.248;6.808;2023-04-29T05:32:00;31.38;;;19.02;;
43248;SDS011;29216;51.248;6.808;2023-04-29T05:34:26;33.85;;;18.65;;
43248;SDS011;29216;51.248;6.808;2023-04-29T05:36:52;32.53;;;18.60;;
43248;SDS011;29216;51.248;6.808;2023-04-29T05:39:18;30.88;;;18.25;;
43248;SDS011;29216;51.248;6.808;2023-04-29T05:41:44;31.92;;;19.40;;
43248;SDS011;29216;51.248;6.808;2023-04-29T05:44:10;29.25;;;17.95;;
43248;SDS011;29216;51.248;6.808;2023-04-29T05:46:36;31.98;;;18.02;;
43248;SDS011;29216;51.248;6.808;2023-04-29T05:49:02;27.63;;;17.35;;
43248;SDS011;29216;51.248;6.808;2023-04-29T05:51:28;29.70;;;17.65;;
43248;SDS011;29216;51.248;6.808;2023-04-29T05:53:56;27.52;;;16.45;;
43248;SDS011;29216;51.248;6.808;2023-04-29T05:56:24;27.40;;;16.98;;
43248;SDS011;29216;51.248;6.808;2023-04-29T05:58:50;28.88;;;16.13;;
43248;SDS011;29216;51.248;6.808;2023-04-29T06:01:16;24.92;;;16.50;;
43248;SDS011;29216;51.248;6.808;2023-04-29T06:03:42;27.77;;;18.35;;
43248;SDS011;29216;51.248;6.808;2023-04-29T06:06:08;23.02;;;16.40;;
43248;SDS011;29216;51.248;6.808;2023-04-29T06:08:35;24.73;;;17.33;;
43248;SDS011;29216;51.248;6.808;2023-04-29T06:11:01;23.13;;;15.80;;
43248;SDS011;29216;51.248;6.808;2023-04-29T06:13:29;24.63;;;15.77;;
43248;SDS011;29216;51.248;6.808;2023-04-29T06:15:56;25.60;;;16.55;;
43248;SDS011;29216;51.248;6.808;2023-04-29T06:18:22;25.73;;;17.08;;
43248;SDS011;29216;51.248;6.808;2023-04-29T06:20:48;22.77;;;15.23;;
43248;SDS011;29216;51.248;6.808;2023-04-29T06:23:14;29.10;;;16.75;;
43248;SDS011;29216;51.248;6.808;2023-04-29T06:25:40;24.08;;;17.13;;
43248;SDS011;29216;51.248;6.808;2023-04-29T06:28:06;25.58;;;16.23;;
43248;SDS011;29216;51.248;6.808;2023-04-29T06:30:33;25.40;;;16.50;;
43248;SDS011;29216;51.248;6.808;2023-04-29T06:32:58;25.98;;;16.40;;
43248;SDS011;29216;51.248;6.808;2023-04-29T06:35:24;26.40;;;16.48;;
43248;SDS011;29216;51.248;6.808;2023-04-29T06:37:51;24.05;;;17.15;;
43248;SDS011;29216;51.248;6.808;2023-04-29T06:40:17;24.75;;;16.05;;
43248;SDS011;29216;51.248;6.808;2023-04-29T06:42:43;25.23;;;16.55;;
43248;SDS011;29216;51.248;6.808;2023-04-29T06:45:09;25.98;;;16.05;;
43248;SDS011;29216;51.248;6.808;2023-04-29T06:47:35;27.90;;;17.02;;
43248;SDS011;29216;51.248;6.808;2023-04-29T06:50:01;23.08;;;16.02;;
43248;SDS011;29216;51.248;6.808;2023-04-29T06:52:27;23.35;;;15.65;;
43248;SDS011;29216;51.248;6.808;2023-04-29T06:54:53;29.05;;;16.35;;
43248;SDS011;29216;51.248;6.808;2023-04-29T06:57:19;23.95;;;16.05;;
43248;SDS011;29216;51.248;6.808;2023-04-29T06:59:45;22.80;;;15.07;;
43248;SDS011;29216;51.248;6.808;2023-04-29T07:02:12;22.15;;;14.07;;
43248;SDS011;29216;51.248;6.808;2023-04-29T07:04:38;19.95;;;14.52;;
43248;SDS011;29216;51.248;6.808;2023-04-29T07:07:04;24.55;;;15.40;;
43248;SDS011;29216;51.248;6.808;2023-04-29T07:09:30;26.05;;;15.45;;
43248;SDS011;29216;51.248;6.808;2023-04-29T07:11:56;22.77;;;14.75;;
43248;SDS011;29216;51.248;6.808;2023-04-29T07:14:22;23.30;;;15.52;;
43248;SDS011;29216;51.248;6.808;2023-04-29T07:16:52;22.35;;;13.68;;
43248;SDS011;29216;51.248;6.808;2023-04-29T07:19:19;20.10;;;13.35;;
43248;SDS011;29216;51.248;6.808;2023-04-29T07:21:45;24.05;;;13.75;;
43248;SDS011;29216;51.248;6.808;2023-04-29T07:24:11;19.60;;;13.32;;
43248;SDS011;29216;51.248;6.808;2023-04-29T07:26:38;21.52;;;13.73;;
43248;SDS011;29216;51.248;6.808;2023-04-29T07:29:04;19.52;;;13.48;;
43248;SDS011;29216;51.248;6.808;2023-04-29T07:31:30;23.48;;;15.13;;
43248;SDS011;29216;51.248;6.808;2023-04-29T07:33:57;19.73;;;13.27;;
43248;SDS011;29216;51.248;6.808;2023-04-29T07:36:23;19.73;;;12.73;;
43248;SDS011;29216;51.248;6.808;2023-04-29T07:38:49;22.75;;;14.85;;
43248;SDS011;29216;51.248;6.808;2023-04-29T07:41:15;20.80;;;14.27;;
43248;SDS011;29216;51.248;6.808;2023-04-29T07:43:41;20.38;;;13.70;;
43248;SDS011;29216;51.248;6.808;2023-04-29T07:46:07;18.60;;;13.40;;
43248;SDS011;29216;51.248;6.808;2023-04-29T07:48:39;20.88;;;14.80;;
43248;SDS011;29216;51.248;6.808;2023-04-29T07:51:05;18.45;;;13.30;;
43248;SDS011;29216;51.248;6.808;2023-04-29T07:53:32;22.58;;;13.88;;
43248;SDS011;29216;51.248;6.808;2023-04-29T07:56:03;20.08;;;13.98;;
43248;SDS011;29216;51.248;6.808;2023-04-29T07:58:30;18.88;;;13.55;;
43248;SDS011;29216;51.248;6.808;2023-04-29T08:00:56;24.50;;;14.60;;
43248;SDS011;29216;51.248;6.808;2023-04-29T08:03:22;23.55;;;14.65;;
43248;SDS011;29216;51.248;6.808;2023-04-29T08:05:48;20.67;;;14.57;;
43248;SDS011;29216;51.248;6.808;2023-04-29T08:08:17;23.17;;;14.70;;
43248;SDS011;29216;51.248;6.808;2023-04-29T08:10:43;18.52;;;12.52;;
43248;SDS011;29216;51.248;6.808;2023-04-29T08:13:09;19.88;;;13.95;;
43248;SDS011;29216;51.248;6.808;2023-04-29T08:15:35;17.13;;;13.63;;
43248;SDS011;29216;51.248;6.808;2023-04-29T08:18:01;17.40;;;13.32;;
43248;SDS011;29216;51.248;6.808;2023-04-29T08:20:27;17.50;;;12.57;;
43248;SDS011;29216;51.248;6.808;2023-04-29T08:22:54;17.65;;;12.90;;
43248;SDS011;29216;51.248;6.808;2023-04-29T08:25:20;19.88;;;12.18;;
43248;SDS011;29216;51.248;6.808;2023-04-29T08:27:46;20.73;;;13.32;;
43248;SDS011;29216;51.248;6.808;2023-04-29T08:30:12;17.50;;;13.23;;
43248;SDS011;29216;51.248;6.808;2023-04-29T08:32:38;16.25;;;12.95;;
43248;SDS011;29216;51.248;6.808;2023-04-29T08:35:04;21.00;;;14.38;;
43248;SDS011;29216;51.248;6.808;2023-04-29T08:37:30;19.85;;;14.02;;
43248;SDS011;29216;51.248;6.808;2023-04-29T08:39:56;23.60;;;15.65;;
43248;SDS011;29216;51.248;6.808;2023-04-29T08:42:32;23.48;;;15.00;;
43248;SDS011;29216;51.248;6.808;2023-04-29T08:45:00;20.42;;;15.13;;
43248;SDS011;29216;51.248;6.808;2023-04-29T08:49:54;26.27;;;17.02;;
43248;SDS011;29216;51.248;6.808;2023-04-29T08:52:21;32.22;;;21.33;;
43248;SDS011;29216;51.248;6.808;2023-04-29T08:54:47;27.70;;;21.27;;
43248;SDS011;29216;51.248;6.808;2023-04-29T08:57:13;27.92;;;18.73;;
43248;SDS011;29216;51.248;6.808;2023-04-29T08:59:40;26.92;;;17.73;;
43248;SDS011;29216;51.248;6.808;2023-04-29T09:02:07;25.52;;;17.75;;
43248;SDS011;29216;51.248;6.808;2023-04-29T09:04:40;25.77;;;16.75;;
43248;SDS011;29216;51.248;6.808;2023-04-29T09:07:12;27.08;;;18.42;;
43248;SDS011;29216;51.248;6.808;2023-04-29T09:09:38;23.48;;;16.60;;
43248;SDS011;29216;51.248;6.808;2023-04-29T09:12:04;26.42;;;18.20;;
43248;SDS011;29216;51.248;6.808;2023-04-29T09:14:31;29.65;;;17.45;;
43248;SDS011;29216;51.248;6.808;2023-04-29T09:16:58;26.67;;;17.08;;
43248;SDS011;29216;51.248;6.808;2023-04-29T09:19:31;27.92;;;17.55;;
43248;SDS011;29216;51.248;6.808;2023-04-29T09:21:58;25.52;;;17.40;;
43248;SDS011;29216;51.248;6.808;2023-04-29T09:24:25;27.75;;;16.90;;
43248;SDS011;29216;51.248;6.808;2023-04-29T09:26:54;28.20;;;17.27;;
43248;SDS011;29216;51.248;6.808;2023-04-29T09:29:20;26.05;;;18.25;;
43248;SDS011;29216;51.248;6.808;2023-04-29T09:31:47;29.00;;;18.08;;
43248;SDS011;29216;51.248;6.808;2023-04-29T09:34:13;29.60;;;17.77;;
43248;SDS011;29216;51.248;6.808;2023-04-29T09:36:44;30.15;;;18.42;;
43248;SDS011;29216;51.248;6.808;2023-04-29T09:39:14;27.33;;;17.95;;
43248;SDS011;29216;51.248;6.808;2023-04-29T09:44:21;25.55;;;18.10;;
43248;SDS011;29216;51.248;6.808;2023-04-29T09:46:57;35.65;;;23.02;;
43248;SDS011;29216;51.248;6.808;2023-04-29T09:51:56;30.10;;;21.08;;
43248;SDS011;29216;51.248;6.808;2023-04-29T09:54:23;34.55;;;24.48;;
43248;SDS011;29216;51.248;6.808;2023-04-29T09:56:50;37.03;;;23.45;;
43248;SDS011;29216;51.248;6.808;2023-04-29T09:59:17;39.00;;;25.05;;
43248;SDS011;29216;51.248;6.808;2023-04-29T10:01:45;38.55;;;24.80;;
43248;SDS011;29216;51.248;6.808;2023-04-29T10:04:12;39.88;;;26.30;;
43248;SDS011;29216;51.248;6.808;2023-04-29T10:06:40;41.10;;;26.83;;
43248;SDS011;29216;51.248;6.808;2023-04-29T10:09:10;39.35;;;26.83;;
43248;SDS011;29216;51.248;6.808;2023-04-29T10:11:40;44.50;;;28.13;;
43248;SDS011;29216;51.248;6.808;2023-04-29T10:14:06;44.05;;;29.10;;
43248;SDS011;29216;51.248;6.808;2023-04-29T10:16:35;41.25;;;25.73;;
43248;SDS011;29216;51.248;6.808;2023-04-29T10:19:05;40.75;;;26.92;;
43248;SDS011;29216;51.248;6.808;2023-04-29T10:21:35;44.70;;;26.90;;
43248;SDS011;29216;51.248;6.808;2023-04-29T10:24:02;37.40;;;24.60;;
43248;SDS011;29216;51.248;6.808;2023-04-29T10:26:28;41.55;;;26.15;;
43248;SDS011;29216;51.248;6.808;2023-04-29T10:28:56;44.45;;;26.25;;
43248;SDS011;29216;51.248;6.808;2023-04-29T10:31:26;37.30;;;25.10;;
43248;SDS011;29216;51.248;6.808;2023-04-29T10:33:57;36.47;;;23.73;;
43248;SDS011;29216;51.248;6.808;2023-04-29T10:36:27;37.10;;;22.58;;
43248;SDS011;29216;51.248;6.808;2023-04-29T10:38:56;35.08;;;22.75;;
43248;SDS011;29216;51.248;6.808;2023-04-29T10:41:26;36.40;;;22.33;;
43248;SDS011;29216;51.248;6.808;2023-04-29T10:43:53;31.13;;;20.75;;
43248;SDS011;29216;51.248;6.808;2023-04-29T10:46:20;29.00;;;20.90;;
43248;SDS011;29216;51.248;6.808;2023-04-29T10:48:46;28.83;;;19.10;;
43248;SDS011;29216;51.248;6.808;2023-04-29T10:51:17;26.42;;;18.48;;
43248;SDS011;29216;51.248;6.808;2023-04-29T10:54:06;29.15;;;18.60;;
43248;SDS011;29216;51.248;6.808;2023-04-29T10:56:43;27.83;;;17.48;;
43248;SDS011;29216;51.248;6.808;2023-04-29T10:59:11;26.38;;;17.65;;
43248;SDS011;29216;51.248;6.808;2023-04-29T11:01:41;26.42;;;16.80;;
43248;SDS011;29216;51.248;6.808;2023-04-29T11:04:07;31.67;;;17.20;;
43248;SDS011;29216;51.248;6.808;2023-04-29T11:09:01;23.85;;;16.38;;
43248;SDS011;29216;51.248;6.808;2023-04-29T11:11:44;25.08;;;16.63;;
43248;SDS011;29216;51.248;6.808;2023-04-29T11:14:11;23.83;;;16.90;;
43248;SDS011;29216;51.248;6.808;2023-04-29T11:16:37;23.10;;;16.75;;
43248;SDS011;29216;51.248;6.808;2023-04-29T11:19:13;27.67;;;16.30;;
43248;SDS011;29216;51.248;6.808;2023-04-29T11:21:39;23.30;;;15.20;;
43248;SDS011;29216;51.248;6.808;2023-04-29T11:24:05;23.55;;;16.05;;
43248;SDS011;29216;51.248;6.808;2023-04-29T11:26:34;22.52;;;14.70;;
43248;SDS011;29216;51.248;6.808;2023-04-29T11:29:01;23.83;;;16.85;;
43248;SDS011;29216;51.248;6.808;2023-04-29T11:31:30;23.27;;;16.27;;
43248;SDS011;29216;51.248;6.808;2023-04-29T11:33:57;21.88;;;15.10;;
43248;SDS011;29216;51.248;6.808;2023-04-29T11:36:23;25.92;;;16.15;;
43248;SDS011;29216;51.248;6.808;2023-04-29T11:38:49;23.73;;;16.42;;
43248;SDS011;29216;51.248;6.808;2023-04-29T11:41:15;22.10;;;15.77;;
43248;SDS011;29216;51.248;6.808;2023-04-29T11:43:44;20.50;;;14.75;;
43248;SDS011;29216;51.248;6.808;2023-04-29T11:46:13;23.67;;;14.88;;
43248;SDS011;29216;51.248;6.808;2023-04-29T11:48:45;22.80;;;15.93;;
43248;SDS011;29216;51.248;6.808;2023-04-29T11:51:12;22.33;;;15.50;;
43248;SDS011;29216;51.248;6.808;2023-04-29T11:53:38;28.27;;;15.93;;
43248;SDS011;29216;51.248;6.808;2023-04-29T11:56:04;21.17;;;15.70;;
43248;SDS011;29216;51.248;6.808;2023-04-29T11:58:30;22.75;;;16.27;;
43248;SDS011;29216;51.248;6.808;2023-04-29T12:00:57;23.55;;;16.38;;
43248;SDS011;29216;51.248;6.808;2023-04-29T12:03:23;19.70;;;15.55;;
43248;SDS011;29216;51.248;6.808;2023-04-29T12:05:52;19.67;;;14.75;;
43248;SDS011;29216;51.248;6.808;2023-04-29T12:08:28;21.25;;;14.63;;
43248;SDS011;29216;51.248;6.808;2023-04-29T12:10:55;21.98;;;15.63;;
43248;SDS011;29216;51.248;6.808;2023-04-29T12:13:22;18.83;;;14.43;;
43248;SDS011;29216;51.248;6.808;2023-04-29T12:15:49;20.10;;;14.20;;
43248;SDS011;29216;51.248;6.808;2023-04-29T12:18:16;24.30;;;15.65;;
43248;SDS011;29216;51.248;6.808;2023-04-29T12:20:43;17.05;;;14.55;;
43248;SDS011;29216;51.248;6.808;2023-04-29T12:23:13;20.10;;;14.27;;
43248;SDS011;29216;51.248;6.808;2023-04-29T12:25:39;24.73;;;16.88;;
43248;SDS011;29216;51.248;6.808;2023-04-29T12:28:12;18.38;;;14.07;;
43248;SDS011;29216;51.248;6.808;2023-04-29T12:30:38;26.42;;;15.35;;
43248;SDS011;29216;51.248;6.808;2023-04-29T12:33:08;19.60;;;14.82;;
43248;SDS011;29216;51.248;6.808;2023-04-29T12:35:34;19.88;;;15.15;;
43248;SDS011;29216;51.248;6.808;2023-04-29T12:38:00;23.27;;;14.85;;
43248;SDS011;29216;51.248;6.808;2023-04-29T12:40:26;21.15;;;14.18;;
43248;SDS011;29216;51.248;6.808;2023-04-29T12:42:52;23.05;;;14.43;;
43248;SDS011;29216;51.248;6.808;2023-04-29T12:45:25;21.88;;;15.38;;
43248;SDS011;29216;51.248;6.808;2023-04-29T12:47:51;16.80;;;13.30;;
43248;SDS011;29216;51.248;6.808;2023-04-29T12:50:17;20.17;;;14.15;;
43248;SDS011;29216;51.248;6.808;2023-04-29T12:52:43;20.27;;;15.43;;
43248;SDS011;29216;51.248;6.808;2023-04-29T12:55:10;17.77;;;12.82;;
43248;SDS011;29216;51.248;6.808;2023-04-29T12:57:36;17.13;;;13.48;;
43248;SDS011;29216;51.248;6.808;2023-04-29T13:00:03;21.38;;;13.63;;
43248;SDS011;29216;51.248;6.808;2023-04-29T13:02:30;17.75;;;13.80;;
43248;SDS011;29216;51.248;6.808;2023-04-29T13:04:56;19.27;;;13.93;;
43248;SDS011;29216;51.248;6.808;2023-04-29T13:07:22;20.25;;;13.40;;
43248;SDS011;29216;51.248;6.808;2023-04-29T13:09:48;19.90;;;14.05;;
43248;SDS011;29216;51.248;6.808;2023-04-29T13:12:15;15.50;;;11.63;;
43248;SDS011;29216;51.248;6.808;2023-04-29T13:14:41;15.90;;;12.30;;
43248;SDS011;29216;51.248;6.808;2023-04-29T13:17:07;16.85;;;12.52;;
43248;SDS011;29216;51.248;6.808;2023-04-29T13:19:33;16.45;;;12.50;;
43248;SDS011;29216;51.248;6.808;2023-04-29T13:21:59;15.18;;;12.25;;
43248;SDS011;29216;51.248;6.808;2023-04-29T13:24:25;24.30;;;14.13;;
43248;SDS011;29216;51.248;6.808;2023-04-29T13:26:51;17.38;;;13.13;;
43248;SDS011;29216;51.248;6.808;2023-04-29T13:29:18;18.02;;;13.23;;
43248;SDS011;29216;51.248;6.808;2023-04-29T13:31:44;17.20;;;13.57;;
43248;SDS011;29216;51.248;6.808;2023-04-29T13:34:10;18.40;;;13.15;;
43248;SDS011;29216;51.248;6.808;2023-04-29T13:36:36;16.05;;;12.93;;
43248;SDS011;29216;51.248;6.808;2023-04-29T13:39:02;20.33;;;14.27;;
43248;SDS011;29216;51.248;6.808;2023-04-29T13:41:28;18.70;;;14.20;;
43248;SDS011;29216;51.248;6.808;2023-04-29T13:43:55;17.52;;;15.30;;
43248;SDS011;29216;51.248;6.808;2023-04-29T13:46:23;19.45;;;15.35;;
43248;SDS011;29216;51.248;6.808;2023-04-29T13:48:49;20.48;;;15.05;;
43248;SDS011;29216;51.248;6.808;2023-04-29T13:51:15;21.27;;;15.50;;
43248;SDS011;29216;51.248;6.808;2023-04-29T13:53:42;22.95;;;15.02;;
43248;SDS011;29216;51.248;6.808;2023-04-29T13:56:08;17.30;;;15.38;;
43248;SDS011;29216;51.248;6.808;2023-04-29T13:58:34;23.05;;;16.88;;
43248;SDS011;29216;51.248;6.808;2023-04-29T14:01:00;21.52;;;16.40;;
43248;SDS011;29216;51.248;6.808;2023-04-29T14:03:26;20.38;;;16.55;;
43248;SDS011;29216;51.248;6.808;2023-04-29T14:05:52;20.77;;;17.60;;
43248;SDS011;29216;51.248;6.808;2023-04-29T14:08:18;19.88;;;15.77;;
43248;SDS011;29216;51.248;6.808;2023-04-29T14:10:44;22.50;;;15.60;;
43248;SDS011;29216;51.248;6.808;2023-04-29T14:13:10;19.10;;;15.95;;
43248;SDS011;29216;51.248;6.808;2023-04-29T14:15:36;17.88;;;15.18;;
43248;SDS011;29216;51.248;6.808;2023-04-29T14:18:02;25.38;;;15.68;;
43248;SDS011;29216;51.248;6.808;2023-04-29T14:20:32;19.40;;;14.68;;
43248;SDS011;29216;51.248;6.808;2023-04-29T14:22:58;21.13;;;13.65;;
43248;SDS011;29216;51.248;6.808;2023-04-29T14:25:27;22.30;;;15.15;;
43248;SDS011;29216;51.248;6.808;2023-04-29T14:27:53;18.55;;;14.15;;
43248;SDS011;29216;51.248;6.808;2023-04-29T14:30:19;21.75;;;15.93;;
43248;SDS011;29216;51.248;6.808;2023-04-29T14:32:45;18.73;;;14.93;;
43248;SDS011;29216;51.248;6.808;2023-04-29T14:35:11;19.98;;;13.90;;
43248;SDS011;29216;51.248;6.808;2023-04-29T14:37:37;19.65;;;14.05;;
43248;SDS011;29216;51.248;6.808;2023-04-29T14:40:04;19.67;;;13.57;;